createdAt,value
2018-01-21T00:02:23.418Z,0.50
2018-01-21T00:04:50.990Z,0.50
2018-01-21T00:07:18.658Z,0.50
2018-01-21T00:09:46.193Z,0.68
2018-01-21T00:12:13.699Z,0.55
2018-01-21T00:14:41.238Z,0.50
2018-01-21T00:17:08.862Z,0.47
2018-01-21T00:19:37.237Z,0.40
2018-01-21T00:22:04.812Z,0.50
2018-01-21T00:24:32.320Z,0.50
2018-01-21T00:26:59.968Z,0.60
2018-01-21T00:29:27.530Z,0.50
2018-01-21T00:31:55.161Z,0.60
2018-01-21T00:34:22.845Z,0.50
2018-01-21T00:36:50.416Z,0.93
2018-01-21T00:39:17.946Z,0.65
2018-01-21T00:41:45.488Z,0.50
2018-01-21T00:44:13.034Z,0.68
2018-01-21T00:46:41.286Z,0.40
2018-01-21T00:49:09.554Z,0.60
2018-01-21T00:51:37.264Z,0.60
2018-01-21T00:54:04.825Z,0.60
2018-01-21T00:56:32.373Z,0.47
2018-01-21T00:59:00.172Z,0.60
2018-01-21T01:01:27.739Z,0.95
2018-01-21T01:03:55.213Z,0.88
2018-01-21T01:06:22.735Z,0.80
2018-01-21T01:08:50.298Z,0.60
2018-01-21T01:11:17.856Z,0.77
2018-01-21T01:13:45.364Z,0.50
2018-01-21T01:16:13.567Z,0.50
2018-01-21T01:18:41.044Z,0.80
2018-01-21T01:21:08.495Z,0.40
2018-01-21T01:23:36.038Z,0.70
2018-01-21T01:26:03.565Z,0.50
2018-01-21T01:28:31.075Z,1.30
2018-01-21T01:30:58.583Z,0.73
2018-01-21T01:33:26.102Z,0.50
2018-01-21T01:35:53.702Z,0.60
2018-01-21T01:38:21.877Z,0.60
2018-01-21T01:40:49.377Z,0.45
2018-01-21T01:43:16.992Z,0.50
2018-01-21T01:45:44.529Z,1.10
2018-01-21T01:48:11.984Z,0.50
2018-01-21T01:50:39.498Z,0.50
2018-01-21T01:53:06.977Z,0.45
2018-01-21T01:55:34.427Z,0.50
2018-01-21T01:58:02.025Z,0.40
2018-01-21T02:00:29.482Z,0.50
2018-01-21T02:02:57.058Z,0.60
2018-01-21T02:05:24.575Z,0.50
2018-01-21T02:07:52.836Z,0.40
2018-01-21T02:10:20.401Z,0.50
2018-01-21T02:12:47.965Z,0.50
2018-01-21T02:15:15.641Z,0.50
2018-01-21T02:17:43.152Z,0.50
2018-01-21T02:20:10.646Z,0.50
2018-01-21T02:22:38.179Z,0.55
2018-01-21T02:25:06.517Z,0.50
2018-01-21T02:27:34.687Z,0.40
2018-01-21T02:30:02.136Z,0.47
2018-01-21T02:32:29.642Z,0.40
2018-01-21T02:34:57.099Z,0.40
2018-01-21T02:37:25.601Z,0.40
2018-01-21T02:39:54.018Z,0.40
2018-01-21T02:42:21.586Z,0.40
2018-01-21T02:44:49.104Z,0.40
2018-01-21T02:47:16.727Z,0.50
2018-01-21T02:49:44.290Z,0.40
2018-01-21T02:52:11.803Z,0.40
2018-01-21T02:54:39.365Z,0.40
2018-01-21T02:57:07.036Z,0.40
2018-01-21T02:59:34.517Z,0.40
2018-01-21T03:02:01.991Z,0.70
2018-01-21T03:04:30.204Z,0.50
2018-01-21T03:06:57.709Z,0.50
2018-01-21T03:09:25.207Z,0.62
2018-01-21T03:11:53.474Z,0.60
2018-01-21T03:14:21.856Z,0.60
2018-01-21T03:16:50.212Z,0.40
2018-01-21T03:19:17.794Z,0.50
2018-01-21T03:21:45.286Z,0.40
2018-01-21T03:24:12.765Z,0.47
2018-01-21T03:26:40.241Z,0.60
2018-01-21T03:29:07.826Z,0.50
2018-01-21T03:31:35.289Z,0.50
2018-01-21T03:34:03.580Z,0.40
2018-01-21T03:36:31.175Z,0.50
2018-01-21T03:38:58.719Z,0.52
2018-01-21T03:41:26.188Z,0.60
2018-01-21T03:43:53.874Z,0.50
2018-01-21T03:46:21.443Z,0.40
2018-01-21T03:48:48.989Z,0.50
2018-01-21T03:51:18.059Z,0.98
2018-01-21T03:53:45.578Z,0.88
2018-01-21T03:56:13.939Z,0.50
2018-01-21T03:58:41.464Z,0.60
2018-01-21T04:01:08.977Z,0.50
2018-01-21T04:03:36.447Z,0.93
2018-01-21T04:06:04.005Z,0.70
2018-01-21T04:08:31.492Z,0.50
2018-01-21T04:10:58.999Z,0.60
2018-01-21T04:13:27.320Z,0.95
2018-01-21T04:15:54.817Z,1.23
2018-01-21T04:18:22.336Z,2.10
2018-01-21T04:20:49.892Z,0.68
2018-01-21T04:23:18.949Z,0.50
2018-01-21T04:25:47.219Z,0.60
2018-01-21T04:28:15.499Z,0.60
2018-01-21T04:30:43.824Z,0.65
2018-01-21T04:33:11.362Z,0.70
2018-01-21T04:35:38.881Z,0.80
2018-01-21T04:38:06.358Z,0.50
2018-01-21T04:40:34.882Z,0.50
2018-01-21T04:43:02.531Z,1.10
2018-01-21T04:45:30.038Z,0.75
2018-01-21T04:47:57.587Z,0.60
2018-01-21T04:50:25.427Z,0.40
2018-01-21T04:52:53.014Z,0.50
2018-01-21T04:55:20.665Z,0.50
2018-01-21T04:57:48.212Z,0.60
2018-01-21T05:00:16.356Z,0.62
2018-01-21T05:02:44.639Z,0.50
2018-01-21T05:05:12.158Z,0.60
2018-01-21T05:07:39.674Z,0.40
2018-01-21T05:10:07.353Z,0.65
2018-01-21T05:12:36.456Z,0.60
2018-01-21T05:15:03.966Z,0.60
2018-01-21T05:17:32.247Z,0.60
2018-01-21T05:20:00.499Z,0.50
2018-01-21T05:22:28.729Z,0.50
2018-01-21T05:24:56.239Z,0.68
2018-01-21T05:27:24.512Z,0.45
2018-01-21T05:29:52.028Z,0.50
2018-01-21T05:32:19.535Z,0.65
2018-01-21T05:34:47.082Z,0.50
2018-01-21T05:37:15.508Z,0.50
2018-01-21T05:39:43.047Z,0.57
2018-01-21T05:42:10.540Z,0.60
2018-01-21T05:44:38.227Z,0.60
2018-01-21T05:47:06.542Z,0.50
2018-01-21T05:49:34.094Z,0.50
2018-01-21T05:52:02.321Z,0.57
2018-01-21T05:54:29.950Z,0.40
2018-01-21T05:56:57.432Z,0.50
2018-01-21T05:59:24.980Z,0.93
2018-01-21T06:01:52.539Z,0.60
2018-01-21T06:04:20.076Z,0.62
2018-01-21T06:06:48.651Z,0.70
2018-01-21T06:09:16.141Z,0.60
2018-01-21T06:11:43.706Z,0.60
2018-01-21T06:14:11.231Z,0.70
2018-01-21T06:16:38.690Z,0.90
2018-01-21T06:19:06.150Z,0.60
2018-01-21T06:21:33.723Z,0.50
2018-01-21T06:24:01.252Z,0.93
2018-01-21T06:26:28.808Z,0.40
2018-01-21T06:28:57.230Z,0.52
2018-01-21T06:31:24.867Z,0.50
2018-01-21T06:33:52.357Z,0.68
2018-01-21T06:36:19.903Z,0.57
2018-01-21T06:38:47.416Z,0.60
2018-01-21T06:41:15.079Z,0.60
2018-01-21T06:43:42.739Z,0.70
2018-01-21T06:46:10.353Z,1.00
2018-01-21T06:48:37.860Z,0.52
2018-01-21T06:51:05.436Z,0.55
2018-01-21T06:53:33.719Z,0.60
2018-01-21T06:56:01.982Z,1.05
2018-01-21T06:58:30.308Z,0.80
2018-01-21T07:00:57.822Z,1.98
2018-01-21T07:03:26.085Z,0.45
2018-01-21T07:05:53.593Z,0.60
2018-01-21T07:08:21.123Z,0.60
2018-01-21T07:10:49.368Z,0.50
2018-01-21T07:13:16.902Z,0.65
2018-01-21T07:15:44.400Z,0.82
2018-01-21T07:18:12.044Z,0.82
2018-01-21T07:20:39.582Z,0.80
2018-01-21T07:23:07.954Z,0.50
2018-01-21T07:25:35.439Z,0.60
2018-01-21T07:28:02.928Z,0.50
2018-01-21T07:30:30.428Z,0.70
2018-01-21T07:32:57.945Z,1.05
2018-01-21T07:35:26.204Z,0.50
2018-01-21T07:37:53.794Z,0.73
2018-01-21T07:40:21.366Z,1.02
2018-01-21T07:42:48.845Z,1.05
2018-01-21T07:45:16.388Z,0.70
2018-01-21T07:47:43.943Z,1.12
2018-01-21T07:50:11.647Z,0.50
2018-01-21T07:52:39.224Z,1.12
2018-01-21T07:55:06.905Z,0.85
2018-01-21T07:57:35.029Z,0.70
2018-01-21T08:00:03.172Z,0.90
2018-01-21T08:02:30.711Z,0.50
2018-01-21T08:04:58.224Z,0.80
2018-01-21T08:07:25.793Z,0.70
2018-01-21T08:09:53.286Z,0.50
2018-01-21T08:12:21.585Z,0.75
2018-01-21T08:14:49.290Z,0.60
2018-01-21T08:17:16.849Z,0.90
2018-01-21T08:19:44.375Z,0.60
2018-01-21T08:22:11.887Z,0.50
2018-01-21T08:24:39.400Z,0.70
2018-01-21T08:27:06.894Z,0.50
2018-01-21T08:29:34.387Z,0.65
2018-01-21T08:32:02.819Z,0.50
2018-01-21T08:34:36.386Z,0.73
2018-01-21T08:37:09.563Z,0.60
2018-01-21T08:39:42.890Z,0.50
2018-01-21T08:42:16.349Z,0.50
2018-01-21T08:44:43.810Z,0.70
2018-01-21T08:47:11.271Z,0.60
2018-01-21T08:49:38.805Z,0.50
2018-01-21T08:52:06.340Z,0.60
2018-01-21T08:54:33.827Z,0.57
2018-01-21T08:57:01.341Z,0.85
2018-01-21T08:59:28.837Z,0.57
2018-01-21T09:01:56.422Z,0.70
2018-01-21T09:04:23.916Z,0.50
2018-01-21T09:06:51.565Z,0.70
2018-01-21T09:09:19.068Z,0.70
2018-01-21T09:11:46.515Z,0.80
2018-01-21T09:14:15.075Z,0.70
2018-01-21T09:16:43.128Z,0.60
2018-01-21T09:19:10.638Z,0.80
2018-01-21T09:21:38.164Z,0.50
2018-01-21T09:24:05.651Z,0.70
2018-01-21T09:26:33.274Z,0.70
2018-01-21T09:29:00.867Z,0.60
2018-01-21T09:31:28.388Z,0.80
2018-01-21T09:33:55.835Z,0.50
2018-01-21T09:36:23.291Z,0.77
2018-01-21T09:38:50.798Z,0.95
2018-01-21T09:41:18.332Z,0.80
2018-01-21T09:43:45.820Z,0.57
2018-01-21T09:46:13.275Z,0.60
2018-01-21T09:48:40.859Z,0.65
2018-01-21T09:51:08.560Z,1.30
2018-01-21T09:53:36.140Z,0.65
2018-01-21T09:56:03.659Z,0.90
2018-01-21T09:58:31.926Z,0.93
2018-01-21T10:01:00.476Z,0.75
2018-01-21T10:03:27.956Z,0.60
2018-01-21T10:05:55.465Z,0.80
2018-01-21T10:08:22.986Z,0.80
2018-01-21T10:10:51.274Z,0.73
2018-01-21T10:13:18.800Z,0.90
2018-01-21T10:15:47.864Z,1.15
2018-01-21T10:18:15.381Z,2.00
2018-01-21T10:20:42.880Z,1.02
2018-01-21T10:23:10.606Z,1.15
2018-01-21T10:25:39.078Z,0.70
2018-01-21T10:28:07.342Z,0.70
2018-01-21T10:30:35.633Z,0.60
2018-01-21T10:33:03.959Z,1.02
2018-01-21T10:35:31.510Z,0.62
2018-01-21T10:37:58.997Z,1.02
2018-01-21T10:40:26.530Z,0.98
2018-01-21T10:42:54.163Z,1.02
2018-01-21T10:45:21.676Z,0.80
2018-01-21T10:47:49.222Z,1.83
2018-01-21T10:50:16.860Z,0.88
2018-01-21T10:52:44.343Z,0.57
2018-01-21T10:55:13.196Z,0.93
2018-01-21T10:57:41.442Z,1.10
2018-01-21T11:00:09.363Z,0.73
2018-01-21T11:02:36.980Z,0.60
2018-01-21T11:05:04.546Z,0.77
2018-01-21T11:07:33.046Z,1.00
2018-01-21T11:10:00.550Z,0.90
2018-01-21T11:12:28.024Z,0.70
2018-01-21T11:14:55.612Z,0.80
2018-01-21T11:17:23.102Z,0.90
2018-01-21T11:19:50.858Z,0.98
2018-01-21T11:22:18.355Z,0.98
2018-01-21T11:24:47.101Z,0.68
2018-01-21T11:27:14.691Z,0.90
2018-01-21T11:29:42.278Z,0.90
2018-01-21T11:32:09.880Z,1.02
2018-01-21T11:34:37.457Z,1.02
2018-01-21T11:37:05.038Z,0.62
2018-01-21T11:39:33.265Z,0.60
2018-01-21T11:42:00.775Z,0.82
2018-01-21T11:44:29.014Z,1.27
2018-01-21T11:46:56.474Z,0.50
2018-01-21T11:49:23.936Z,0.60
2018-01-21T11:51:52.327Z,0.70
2018-01-21T11:54:19.871Z,0.73
2018-01-21T11:56:47.596Z,0.62
2018-01-21T11:59:15.051Z,0.90
2018-01-21T12:01:43.000Z,0.68
2018-01-21T12:04:10.708Z,1.35
2018-01-21T12:06:38.178Z,1.25
2018-01-21T12:09:05.652Z,1.23
2018-01-21T12:11:33.160Z,1.15
2018-01-21T12:14:00.635Z,0.50
2018-01-21T12:16:28.138Z,0.60
2018-01-21T12:18:55.637Z,0.85
2018-01-21T12:21:23.968Z,1.27
2018-01-21T12:23:51.480Z,0.82
2018-01-21T12:26:18.936Z,1.00
2018-01-21T12:28:46.698Z,1.00
2018-01-21T12:31:14.941Z,1.10
2018-01-21T12:33:42.403Z,0.70
2018-01-21T12:36:09.928Z,0.75
2018-01-21T12:38:37.387Z,0.80
2018-01-21T12:41:04.957Z,1.20
2018-01-21T12:43:32.462Z,1.20
2018-01-21T12:46:00.779Z,0.57
2018-01-21T12:48:28.544Z,1.00
2018-01-21T12:50:56.088Z,0.80
2018-01-21T12:53:23.905Z,1.02
2018-01-21T12:55:51.397Z,1.00
2018-01-21T12:58:18.917Z,0.90
2018-01-21T13:00:48.031Z,0.80
2018-01-21T13:03:17.933Z,1.05
2018-01-21T13:05:45.405Z,0.80
2018-01-21T13:08:12.894Z,0.73
2018-01-21T13:10:40.365Z,0.50
2018-01-21T13:13:07.820Z,0.85
2018-01-21T13:15:35.313Z,0.60
2018-01-21T13:18:02.780Z,0.70
2018-01-21T13:20:31.125Z,1.17
2018-01-21T13:22:58.657Z,1.48
2018-01-21T13:25:26.158Z,0.80
2018-01-21T13:27:53.643Z,0.85
2018-01-21T13:30:21.140Z,0.90
2018-01-21T13:32:48.717Z,0.90
2018-01-21T13:35:16.487Z,0.80
2018-01-21T13:37:44.016Z,0.70
2018-01-21T13:40:11.596Z,0.60
2018-01-21T13:42:39.119Z,0.82
2018-01-21T13:45:07.841Z,0.73
2018-01-21T13:47:35.390Z,0.80
2018-01-21T13:50:02.849Z,0.80
2018-01-21T13:52:30.335Z,0.70
2018-01-21T13:54:57.902Z,0.80
2018-01-21T13:57:25.384Z,0.73
2018-01-21T13:59:53.795Z,0.80
2018-01-21T14:02:21.341Z,0.60
2018-01-21T14:04:48.840Z,0.73
2018-01-21T14:07:16.362Z,0.80
2018-01-21T14:09:43.889Z,0.70
2018-01-21T14:12:11.392Z,0.80
2018-01-21T14:14:38.860Z,0.52
2018-01-21T14:17:06.349Z,0.62
2018-01-21T14:19:33.889Z,0.70
2018-01-21T14:22:01.946Z,0.62
2018-01-21T14:24:29.541Z,0.70
2018-01-21T14:26:57.057Z,0.73
2018-01-21T14:29:24.592Z,0.50
2018-01-21T14:31:52.171Z,0.55
2018-01-21T14:34:19.681Z,0.70
2018-01-21T14:36:47.268Z,0.73
2018-01-21T14:39:14.776Z,0.77
2018-01-21T14:41:42.304Z,0.70
2018-01-21T14:44:09.886Z,0.60
2018-01-21T14:46:37.560Z,0.68
2018-01-21T14:49:05.064Z,0.47
2018-01-21T14:51:33.359Z,0.50
2018-01-21T14:54:01.657Z,0.60
2018-01-21T14:56:29.197Z,0.80
2018-01-21T14:58:56.837Z,0.50
2018-01-21T15:01:24.328Z,1.05
2018-01-21T15:03:52.051Z,0.80
2018-01-21T15:06:19.585Z,0.50
2018-01-21T15:08:47.135Z,0.60
2018-01-21T15:11:14.582Z,0.50
2018-01-21T15:13:42.181Z,0.50
2018-01-21T15:16:09.708Z,1.15
2018-01-21T15:18:37.242Z,1.05
2018-01-21T15:21:05.603Z,0.50
2018-01-21T15:23:33.167Z,1.05
2018-01-21T15:26:00.700Z,0.85
2018-01-21T15:28:28.495Z,0.57
2018-01-21T15:30:56.132Z,1.02
2018-01-21T15:33:23.670Z,0.50
2018-01-21T15:35:51.133Z,0.50
2018-01-21T15:38:18.660Z,0.77
2018-01-21T15:40:46.217Z,0.70
2018-01-21T15:43:13.679Z,0.75
2018-01-21T15:45:41.220Z,0.50
2018-01-21T15:48:09.140Z,0.68
2018-01-21T15:50:36.650Z,0.60
2018-01-21T15:53:04.348Z,0.80
2018-01-21T15:55:31.812Z,0.68
2018-01-21T15:57:59.310Z,0.98
2018-01-21T16:00:26.826Z,0.60
2018-01-21T16:02:55.176Z,0.55
2018-01-21T16:05:22.637Z,0.60
2018-01-21T16:07:50.165Z,0.80
2018-01-21T16:10:18.515Z,0.75
2018-01-21T16:12:46.822Z,1.10
2018-01-21T16:15:15.039Z,0.73
2018-01-21T16:17:42.512Z,1.48
2018-01-21T16:20:10.093Z,0.57
2018-01-21T16:22:37.677Z,0.95
2018-01-21T16:25:05.212Z,1.02
2018-01-21T16:27:32.894Z,0.62
2018-01-21T16:30:00.497Z,0.80
2018-01-21T16:32:27.982Z,0.80
2018-01-21T16:34:55.432Z,0.93
2018-01-21T16:37:34.858Z,0.52
2018-01-21T16:40:02.360Z,1.23
2018-01-21T16:42:30.653Z,0.90
2018-01-21T16:44:58.156Z,0.90
2018-01-21T16:47:25.747Z,0.90
2018-01-21T16:49:54.809Z,0.90
2018-01-21T16:52:22.363Z,1.00
2018-01-21T16:54:49.947Z,0.82
2018-01-21T16:57:17.747Z,1.20
2018-01-21T16:59:45.378Z,1.00
2018-01-21T17:02:13.038Z,0.90
2018-01-21T17:04:41.371Z,0.60
2018-01-21T17:07:09.041Z,0.70
2018-01-21T17:09:36.718Z,0.70
2018-01-21T17:12:04.294Z,0.80
2018-01-21T17:14:31.836Z,0.90
2018-01-21T17:16:59.331Z,0.80
2018-01-21T17:19:26.834Z,1.10
2018-01-21T17:21:54.437Z,0.75
2018-01-21T17:24:21.996Z,0.70
2018-01-21T17:26:50.394Z,1.23
2018-01-21T17:29:17.926Z,0.70
2018-01-21T17:31:45.469Z,0.80
2018-01-21T17:34:13.034Z,0.70
2018-01-21T17:36:40.943Z,1.00
2018-01-21T17:39:08.573Z,1.12
2018-01-21T17:41:36.099Z,1.12
2018-01-21T17:44:03.666Z,1.27
2018-01-21T17:46:31.228Z,0.98
2018-01-21T17:48:58.757Z,1.25
2018-01-21T17:51:26.259Z,1.20
2018-01-21T17:53:53.776Z,1.23
2018-01-21T17:56:21.288Z,1.30
2018-01-21T17:58:48.772Z,1.25
2018-01-21T18:01:17.099Z,1.12
2018-01-21T18:03:44.621Z,1.12
2018-01-21T18:06:12.140Z,1.83
2018-01-21T18:08:39.588Z,1.12
2018-01-21T18:11:07.043Z,1.95
2018-01-21T18:13:34.507Z,1.77
2018-01-21T18:16:02.052Z,1.45
2018-01-21T18:18:29.609Z,1.80
2018-01-21T18:20:57.198Z,2.00
2018-01-21T18:23:24.849Z,1.35
2018-01-21T18:25:52.398Z,1.92
2018-01-21T18:28:19.907Z,1.33
2018-01-21T18:30:47.408Z,1.87
2018-01-21T18:33:14.983Z,2.12
2018-01-21T18:35:42.472Z,1.52
2018-01-21T18:38:10.033Z,1.50
2018-01-21T18:40:38.312Z,1.17
2018-01-21T18:43:05.807Z,1.40
2018-01-21T18:45:33.376Z,1.20
2018-01-21T18:48:01.063Z,1.50
2018-01-21T18:50:30.253Z,1.05
2018-01-21T18:52:57.790Z,1.05
2018-01-21T18:55:25.276Z,1.27
2018-01-21T18:57:52.796Z,2.05
2018-01-21T19:00:20.730Z,2.55
2018-01-21T19:02:48.295Z,2.53
2018-01-21T19:05:15.796Z,1.75
2018-01-21T19:07:43.311Z,1.52
2018-01-21T19:10:11.586Z,1.55
2018-01-21T19:12:39.872Z,1.27
2018-01-21T19:15:08.127Z,1.40
2018-01-21T19:17:35.645Z,1.45
2018-01-21T19:20:03.191Z,1.55
2018-01-21T19:22:30.656Z,1.70
2018-01-21T19:24:58.317Z,1.23
2018-01-21T19:27:25.857Z,1.35
2018-01-21T19:29:53.362Z,2.53
2018-01-21T19:32:20.833Z,2.10
2018-01-21T19:34:48.327Z,1.30
2018-01-21T19:37:15.862Z,2.10
2018-01-21T19:39:44.776Z,1.45
2018-01-21T19:42:14.802Z,2.03
2018-01-21T19:44:42.302Z,2.00
2018-01-21T19:47:09.959Z,1.27
2018-01-21T19:49:37.762Z,1.60
2018-01-21T19:52:05.257Z,1.55
2018-01-21T19:54:32.807Z,1.95
2018-01-21T19:57:00.315Z,2.45
2018-01-21T19:59:31.840Z,1.90
2018-01-21T20:01:59.455Z,2.37
2018-01-21T20:04:27.774Z,2.62
2018-01-21T20:06:55.256Z,1.62
2018-01-21T20:09:22.706Z,2.80
2018-01-21T20:11:50.193Z,2.55
2018-01-21T20:14:17.662Z,4.18
2018-01-21T20:16:45.146Z,2.22
2018-01-21T20:19:12.668Z,2.12
2018-01-21T20:21:40.219Z,3.22
2018-01-21T20:24:07.735Z,2.72
2018-01-21T20:26:35.212Z,2.65
2018-01-21T20:29:02.742Z,2.72
2018-01-21T20:31:30.322Z,2.83
2018-01-21T20:33:57.840Z,1.80
2018-01-21T20:36:26.141Z,3.80
2018-01-21T20:38:53.608Z,2.10
2018-01-21T20:41:21.148Z,2.90
2018-01-21T20:43:48.587Z,2.17
2018-01-21T20:46:16.155Z,2.55
2018-01-21T20:48:43.659Z,2.53
2018-01-21T20:51:16.952Z,1.70
2018-01-21T20:53:50.348Z,1.80
2018-01-21T20:56:17.852Z,2.53
2018-01-21T20:58:46.336Z,1.80
2018-01-21T21:01:14.659Z,2.00
2018-01-21T21:03:42.181Z,2.20
2018-01-21T21:06:09.669Z,2.12
2018-01-21T21:08:37.324Z,1.10
2018-01-21T21:11:04.999Z,2.92
2018-01-21T21:13:32.482Z,1.20
2018-01-21T21:16:00.021Z,1.90
2018-01-21T21:18:27.517Z,1.90
2018-01-21T21:20:55.031Z,1.95
2018-01-21T21:23:22.562Z,2.00
2018-01-21T21:25:50.062Z,3.20
2018-01-21T21:28:17.578Z,2.00
2018-01-21T21:30:45.221Z,2.15
2018-01-21T21:33:13.458Z,2.30
2018-01-21T21:35:40.996Z,2.12
2018-01-21T21:38:08.481Z,2.28
2018-01-21T21:40:35.968Z,1.75
2018-01-21T21:43:04.384Z,1.83
2018-01-21T21:45:31.868Z,2.62
2018-01-21T21:47:59.365Z,1.60
2018-01-21T21:50:26.875Z,2.30
2018-01-21T21:52:54.383Z,1.62
2018-01-21T21:55:21.943Z,1.52
2018-01-21T21:57:50.244Z,2.03
2018-01-21T22:00:17.851Z,2.37
2018-01-21T22:02:45.505Z,1.95
2018-01-21T22:05:13.881Z,2.80
2018-01-21T22:07:41.454Z,2.08
2018-01-21T22:10:08.988Z,4.05
2018-01-21T22:12:36.473Z,2.37
2018-01-21T22:15:04.200Z,2.20
2018-01-21T22:17:31.737Z,2.28
2018-01-21T22:19:59.969Z,1.80
2018-01-21T22:22:27.477Z,2.20
2018-01-21T22:24:54.995Z,2.80
2018-01-21T22:27:22.569Z,4.70
2018-01-21T22:29:50.845Z,2.28
2018-01-21T22:32:18.375Z,2.50
2018-01-21T22:34:45.865Z,2.60
2018-01-21T22:37:13.387Z,2.45
2018-01-21T22:39:40.894Z,3.28
2018-01-21T22:42:09.186Z,2.58
2018-01-21T22:44:36.660Z,2.12
2018-01-21T22:47:04.193Z,1.62
2018-01-21T22:49:31.714Z,2.10
2018-01-21T22:51:59.239Z,1.98
2018-01-21T22:54:26.804Z,1.73
2018-01-21T22:56:55.112Z,1.90
2018-01-21T22:59:22.659Z,2.42
2018-01-21T23:01:50.117Z,2.65
2018-01-21T23:04:17.598Z,2.00
2018-01-21T23:06:45.268Z,2.90
2018-01-21T23:09:12.803Z,3.17
2018-01-21T23:11:40.331Z,1.62
2018-01-21T23:14:07.843Z,1.52
2018-01-21T23:16:35.307Z,1.35
2018-01-21T23:19:02.803Z,1.58
2018-01-21T23:21:30.349Z,1.25
2018-01-21T23:23:57.834Z,1.10
2018-01-21T23:26:25.359Z,1.10
2018-01-21T23:28:52.955Z,0.70
2018-01-21T23:31:20.474Z,2.58
2018-01-21T23:33:47.982Z,1.02
2018-01-21T23:36:15.565Z,1.15
2018-01-21T23:38:43.162Z,1.10
2018-01-21T23:41:10.617Z,1.35
2018-01-21T23:43:38.303Z,1.20
2018-01-21T23:46:05.802Z,1.12
2018-01-21T23:48:33.333Z,1.05
2018-01-21T23:51:00.786Z,1.20
2018-01-21T23:53:28.273Z,1.27
2018-01-21T23:55:55.788Z,1.23
2018-01-21T23:58:23.272Z,0.82
